sensor_id;sensor_type;location;lat;lon;timestamp;P1;durP1;ratioP1;P2;durP2;ratioP2
13085;SDS011;6609;49.882;8.664;2023-02-15T00:01:05;35.53;;;17.67;;
13085;SDS011;6609;49.882;8.664;2023-02-15T00:03:32;35.03;;;18.50;;
13085;SDS011;6609;49.882;8.664;2023-02-15T00:05:59;30.23;;;15.77;;
13085;SDS011;6609;49.882;8.664;2023-02-15T00:08:26;34.03;;;17.42;;
13085;SDS011;6609;49.882;8.664;2023-02-15T00:10:53;34.88;;;16.95;;
13085;SDS011;6609;49.882;8.664;2023-02-15T00:13:21;32.78;;;16.20;;
13085;SDS011;6609;49.882;8.664;2023-02-15T00:15:48;29.57;;;14.73;;
13085;SDS011;6609;49.882;8.664;2023-02-15T00:18:15;30.87;;;16.87;;
13085;SDS011;6609;49.882;8.664;2023-02-15T00:20:42;29.23;;;15.30;;
13085;SDS011;6609;49.882;8.664;2023-02-15T00:23:09;30.73;;;16.40;;
13085;SDS011;6609;49.882;8.664;2023-02-15T00:25:36;31.45;;;16.13;;
13085;SDS011;6609;49.882;8.664;2023-02-15T00:28:03;33.67;;;15.93;;
13085;SDS011;6609;49.882;8.664;2023-02-15T00:30:32;31.20;;;15.15;;
13085;SDS011;6609;49.882;8.664;2023-02-15T00:32:58;34.33;;;16.30;;
13085;SDS011;6609;49.882;8.664;2023-02-15T00:35:25;34.00;;;17.00;;
13085;SDS011;6609;49.882;8.664;2023-02-15T00:37:52;32.63;;;17.27;;
13085;SDS011;6609;49.882;8.664;2023-02-15T00:40:19;31.65;;;15.57;;
13085;SDS011;6609;49.882;8.664;2023-02-15T00:42:46;30.10;;;16.58;;
13085;SDS011;6609;49.882;8.664;2023-02-15T00:45:13;33.10;;;17.40;;
13085;SDS011;6609;49.882;8.664;2023-02-15T00:47:42;29.90;;;14.68;;
13085;SDS011;6609;49.882;8.664;2023-02-15T00:50:08;34.50;;;17.17;;
13085;SDS011;6609;49.882;8.664;2023-02-15T00:52:35;31.50;;;16.95;;
13085;SDS011;6609;49.882;8.664;2023-02-15T00:55:02;31.83;;;17.10;;
13085;SDS011;6609;49.882;8.664;2023-02-15T00:57:30;31.80;;;15.68;;
13085;SDS011;6609;49.882;8.664;2023-02-15T00:59:57;29.30;;;15.68;;
13085;SDS011;6609;49.882;8.664;2023-02-15T01:02:23;32.38;;;17.05;;
13085;SDS011;6609;49.882;8.664;2023-02-15T01:04:52;29.48;;;15.90;;
13085;SDS011;6609;49.882;8.664;2023-02-15T01:07:18;35.75;;;16.75;;
13085;SDS011;6609;49.882;8.664;2023-02-15T01:09:45;35.78;;;18.30;;
13085;SDS011;6609;49.882;8.664;2023-02-15T01:12:12;34.22;;;16.77;;
13085;SDS011;6609;49.882;8.664;2023-02-15T01:14:40;32.17;;;16.38;;
13085;SDS011;6609;49.882;8.664;2023-02-15T01:17:06;33.38;;;17.67;;
13085;SDS011;6609;49.882;8.664;2023-02-15T01:19:33;35.97;;;17.17;;
13085;SDS011;6609;49.882;8.664;2023-02-15T01:22:02;34.17;;;16.52;;
13085;SDS011;6609;49.882;8.664;2023-02-15T01:24:28;33.70;;;16.67;;
13085;SDS011;6609;49.882;8.664;2023-02-15T01:26:55;31.90;;;15.88;;
13085;SDS011;6609;49.882;8.664;2023-02-15T01:29:22;35.38;;;18.00;;
13085;SDS011;6609;49.882;8.664;2023-02-15T01:31:50;31.52;;;16.98;;
13085;SDS011;6609;49.882;8.664;2023-02-15T01:34:17;35.15;;;16.15;;
13085;SDS011;6609;49.882;8.664;2023-02-15T01:36:44;32.83;;;16.08;;
13085;SDS011;6609;49.882;8.664;2023-02-15T01:39:12;37.60;;;17.65;;
13085;SDS011;6609;49.882;8.664;2023-02-15T01:41:40;35.67;;;17.88;;
13085;SDS011;6609;49.882;8.664;2023-02-15T01:47:07;37.78;;;18.80;;
13085;SDS011;6609;49.882;8.664;2023-02-15T01:49:35;33.73;;;16.67;;
13085;SDS011;6609;49.882;8.664;2023-02-15T01:52:02;35.50;;;17.67;;
13085;SDS011;6609;49.882;8.664;2023-02-15T01:54:31;38.53;;;18.55;;
13085;SDS011;6609;49.882;8.664;2023-02-15T01:57:02;39.53;;;19.05;;
13085;SDS011;6609;49.882;8.664;2023-02-15T01:59:32;34.70;;;17.83;;
13085;SDS011;6609;49.882;8.664;2023-02-15T02:02:01;36.75;;;18.33;;
13085;SDS011;6609;49.882;8.664;2023-02-15T02:04:29;35.40;;;18.20;;
13085;SDS011;6609;49.882;8.664;2023-02-15T02:07:01;35.20;;;17.83;;
13085;SDS011;6609;49.882;8.664;2023-02-15T02:09:31;30.17;;;16.70;;
13085;SDS011;6609;49.882;8.664;2023-02-15T02:11:58;33.33;;;17.77;;
13085;SDS011;6609;49.882;8.664;2023-02-15T02:14:27;40.70;;;17.40;;
13085;SDS011;6609;49.882;8.664;2023-02-15T02:16:55;35.67;;;16.85;;
13085;SDS011;6609;49.882;8.664;2023-02-15T02:22:44;37.40;;;18.17;;
13085;SDS011;6609;49.882;8.664;2023-02-15T02:31:43;40.67;;;18.90;;
13085;SDS011;6609;49.882;8.664;2023-02-15T02:34:26;35.38;;;18.63;;
13085;SDS011;6609;49.882;8.664;2023-02-15T02:36:59;43.65;;;18.77;;
13085;SDS011;6609;49.882;8.664;2023-02-15T02:39:37;37.47;;;18.25;;
13085;SDS011;6609;49.882;8.664;2023-02-15T02:42:12;40.15;;;16.88;;
13085;SDS011;6609;49.882;8.664;2023-02-15T02:44:43;35.10;;;18.33;;
13085;SDS011;6609;49.882;8.664;2023-02-15T02:47:15;35.87;;;19.40;;
13085;SDS011;6609;49.882;8.664;2023-02-15T02:49:46;35.10;;;17.98;;
13085;SDS011;6609;49.882;8.664;2023-02-15T02:52:34;37.55;;;19.30;;
13085;SDS011;6609;49.882;8.664;2023-02-15T02:55:07;32.33;;;16.73;;
13085;SDS011;6609;49.882;8.664;2023-02-15T02:57:39;32.97;;;17.00;;
13085;SDS011;6609;49.882;8.664;2023-02-15T03:00:11;36.77;;;17.37;;
13085;SDS011;6609;49.882;8.664;2023-02-15T03:02:41;31.47;;;17.20;;
13085;SDS011;6609;49.882;8.664;2023-02-15T03:05:12;34.53;;;17.23;;
13085;SDS011;6609;49.882;8.664;2023-02-15T03:07:41;34.47;;;16.47;;
13085;SDS011;6609;49.882;8.664;2023-02-15T03:10:11;32.97;;;17.23;;
13085;SDS011;6609;49.882;8.664;2023-02-15T03:12:39;38.27;;;17.70;;
13085;SDS011;6609;49.882;8.664;2023-02-15T03:15:08;37.35;;;17.20;;
13085;SDS011;6609;49.882;8.664;2023-02-15T03:17:39;33.10;;;17.90;;
13085;SDS011;6609;49.882;8.664;2023-02-15T03:20:09;31.17;;;16.23;;
13085;SDS011;6609;49.882;8.664;2023-02-15T03:22:42;37.43;;;18.20;;
13085;SDS011;6609;49.882;8.664;2023-02-15T03:25:14;35.00;;;16.80;;
13085;SDS011;6609;49.882;8.664;2023-02-15T03:27:45;34.15;;;16.88;;
13085;SDS011;6609;49.882;8.664;2023-02-15T03:30:16;33.53;;;17.85;;
13085;SDS011;6609;49.882;8.664;2023-02-15T03:32:46;38.50;;;18.13;;
13085;SDS011;6609;49.882;8.664;2023-02-15T03:35:15;34.20;;;16.20;;
13085;SDS011;6609;49.882;8.664;2023-02-15T03:37:43;36.95;;;17.05;;
13085;SDS011;6609;49.882;8.664;2023-02-15T03:40:15;33.43;;;16.70;;
13085;SDS011;6609;49.882;8.664;2023-02-15T03:43:04;38.47;;;17.30;;
13085;SDS011;6609;49.882;8.664;2023-02-15T03:45:37;35.80;;;17.87;;
13085;SDS011;6609;49.882;8.664;2023-02-15T03:48:19;33.70;;;16.93;;
13085;SDS011;6609;49.882;8.664;2023-02-15T03:50:49;29.27;;;15.90;;
13085;SDS011;6609;49.882;8.664;2023-02-15T03:53:35;35.10;;;17.57;;
13085;SDS011;6609;49.882;8.664;2023-02-15T03:56:04;35.07;;;17.07;;
13085;SDS011;6609;49.882;8.664;2023-02-15T03:58:31;34.00;;;16.45;;
13085;SDS011;6609;49.882;8.664;2023-02-15T04:01:18;33.03;;;17.63;;
13085;SDS011;6609;49.882;8.664;2023-02-15T04:04:09;34.83;;;16.07;;
13085;SDS011;6609;49.882;8.664;2023-02-15T04:06:42;36.00;;;15.23;;
13085;SDS011;6609;49.882;8.664;2023-02-15T04:09:09;31.15;;;16.23;;
13085;SDS011;6609;49.882;8.664;2023-02-15T04:11:50;50.00;;;15.27;;
13085;SDS011;6609;49.882;8.664;2023-02-15T04:14:17;30.90;;;15.37;;
13085;SDS011;6609;49.882;8.664;2023-02-15T04:17:02;33.67;;;15.85;;
13085;SDS011;6609;49.882;8.664;2023-02-15T04:19:31;32.85;;;15.40;;
13085;SDS011;6609;49.882;8.664;2023-02-15T04:22:17;33.60;;;16.30;;
13085;SDS011;6609;49.882;8.664;2023-02-15T04:25:02;32.20;;;15.43;;
13085;SDS011;6609;49.882;8.664;2023-02-15T04:27:36;31.90;;;16.05;;
13085;SDS011;6609;49.882;8.664;2023-02-15T04:30:03;30.77;;;15.70;;
13085;SDS011;6609;49.882;8.664;2023-02-15T04:32:31;28.42;;;14.93;;
13085;SDS011;6609;49.882;8.664;2023-02-15T04:34:58;27.10;;;15.35;;
13085;SDS011;6609;49.882;8.664;2023-02-15T04:37:26;30.53;;;15.60;;
13085;SDS011;6609;49.882;8.664;2023-02-15T04:39:53;30.35;;;15.02;;
13085;SDS011;6609;49.882;8.664;2023-02-15T04:42:20;38.10;;;16.23;;
13085;SDS011;6609;49.882;8.664;2023-02-15T04:44:47;33.15;;;16.33;;
13085;SDS011;6609;49.882;8.664;2023-02-15T04:47:14;31.83;;;15.50;;
13085;SDS011;6609;49.882;8.664;2023-02-15T04:49:41;28.90;;;15.25;;
13085;SDS011;6609;49.882;8.664;2023-02-15T04:52:08;30.92;;;15.68;;
13085;SDS011;6609;49.882;8.664;2023-02-15T04:54:36;34.33;;;15.68;;
13085;SDS011;6609;49.882;8.664;2023-02-15T04:57:03;28.60;;;14.57;;
13085;SDS011;6609;49.882;8.664;2023-02-15T04:59:30;29.65;;;15.20;;
13085;SDS011;6609;49.882;8.664;2023-02-15T05:01:57;30.98;;;14.73;;
13085;SDS011;6609;49.882;8.664;2023-02-15T05:04:24;28.58;;;14.82;;
13085;SDS011;6609;49.882;8.664;2023-02-15T05:06:51;27.35;;;14.35;;
13085;SDS011;6609;49.882;8.664;2023-02-15T05:09:18;27.48;;;14.60;;
13085;SDS011;6609;49.882;8.664;2023-02-15T05:11:46;25.33;;;14.30;;
13085;SDS011;6609;49.882;8.664;2023-02-15T05:14:13;29.97;;;13.27;;
13085;SDS011;6609;49.882;8.664;2023-02-15T05:16:40;29.52;;;13.05;;
13085;SDS011;6609;49.882;8.664;2023-02-15T05:19:07;25.20;;;12.70;;
13085;SDS011;6609;49.882;8.664;2023-02-15T05:21:34;28.75;;;14.57;;
13085;SDS011;6609;49.882;8.664;2023-02-15T05:24:01;26.05;;;13.05;;
13085;SDS011;6609;49.882;8.664;2023-02-15T05:26:49;31.63;;;14.40;;
13085;SDS011;6609;49.882;8.664;2023-02-15T05:29:33;28.90;;;14.93;;
13085;SDS011;6609;49.882;8.664;2023-02-15T05:32:00;26.92;;;14.27;;
13085;SDS011;6609;49.882;8.664;2023-02-15T05:34:27;25.60;;;14.00;;
13085;SDS011;6609;49.882;8.664;2023-02-15T05:36:54;27.63;;;13.63;;
13085;SDS011;6609;49.882;8.664;2023-02-15T05:39:20;26.45;;;13.73;;
13085;SDS011;6609;49.882;8.664;2023-02-15T05:41:49;24.17;;;13.43;;
13085;SDS011;6609;49.882;8.664;2023-02-15T05:44:16;27.60;;;13.57;;
13085;SDS011;6609;49.882;8.664;2023-02-15T05:46:44;26.55;;;12.73;;
13085;SDS011;6609;49.882;8.664;2023-02-15T05:49:11;24.52;;;12.68;;
13085;SDS011;6609;49.882;8.664;2023-02-15T05:51:37;27.42;;;13.45;;
13085;SDS011;6609;49.882;8.664;2023-02-15T05:54:04;25.95;;;14.07;;
13085;SDS011;6609;49.882;8.664;2023-02-15T05:56:31;26.85;;;12.70;;
13085;SDS011;6609;49.882;8.664;2023-02-15T05:58:59;22.42;;;12.75;;
13085;SDS011;6609;49.882;8.664;2023-02-15T06:01:26;32.92;;;14.05;;
13085;SDS011;6609;49.882;8.664;2023-02-15T06:03:53;24.52;;;13.27;;
13085;SDS011;6609;49.882;8.664;2023-02-15T06:06:20;28.98;;;14.43;;
13085;SDS011;6609;49.882;8.664;2023-02-15T06:08:47;31.88;;;14.13;;
13085;SDS011;6609;49.882;8.664;2023-02-15T06:11:14;28.20;;;14.48;;
13085;SDS011;6609;49.882;8.664;2023-02-15T06:13:41;31.95;;;14.35;;
13085;SDS011;6609;49.882;8.664;2023-02-15T06:16:09;27.52;;;14.13;;
13085;SDS011;6609;49.882;8.664;2023-02-15T06:18:36;31.65;;;14.63;;
13085;SDS011;6609;49.882;8.664;2023-02-15T06:21:03;28.20;;;13.75;;
13085;SDS011;6609;49.882;8.664;2023-02-15T06:23:30;25.13;;;13.57;;
13085;SDS011;6609;49.882;8.664;2023-02-15T06:25:57;31.60;;;13.80;;
13085;SDS011;6609;49.882;8.664;2023-02-15T06:28:24;25.73;;;14.02;;
13085;SDS011;6609;49.882;8.664;2023-02-15T06:30:51;25.25;;;13.55;;
13085;SDS011;6609;49.882;8.664;2023-02-15T06:33:22;19.48;;;12.15;;
13085;SDS011;6609;49.882;8.664;2023-02-15T06:35:49;21.98;;;11.80;;
13085;SDS011;6609;49.882;8.664;2023-02-15T06:38:16;20.42;;;11.88;;
13085;SDS011;6609;49.882;8.664;2023-02-15T06:40:43;22.02;;;11.82;;
13085;SDS011;6609;49.882;8.664;2023-02-15T06:43:10;23.50;;;12.45;;
13085;SDS011;6609;49.882;8.664;2023-02-15T06:45:37;24.08;;;11.75;;
13085;SDS011;6609;49.882;8.664;2023-02-15T06:48:04;21.65;;;11.60;;
13085;SDS011;6609;49.882;8.664;2023-02-15T06:50:34;26.00;;;12.10;;
13085;SDS011;6609;49.882;8.664;2023-02-15T06:53:01;22.27;;;12.15;;
13085;SDS011;6609;49.882;8.664;2023-02-15T06:55:29;23.85;;;13.05;;
13085;SDS011;6609;49.882;8.664;2023-02-15T06:57:56;23.92;;;12.35;;
13085;SDS011;6609;49.882;8.664;2023-02-15T07:00:23;23.35;;;12.45;;
13085;SDS011;6609;49.882;8.664;2023-02-15T07:02:52;24.30;;;13.00;;
13085;SDS011;6609;49.882;8.664;2023-02-15T07:05:21;26.83;;;13.25;;
13085;SDS011;6609;49.882;8.664;2023-02-15T07:07:49;25.20;;;13.82;;
13085;SDS011;6609;49.882;8.664;2023-02-15T07:10:16;31.17;;;14.10;;
13085;SDS011;6609;49.882;8.664;2023-02-15T07:12:43;27.48;;;14.05;;
13085;SDS011;6609;49.882;8.664;2023-02-15T07:15:11;24.30;;;12.65;;
13085;SDS011;6609;49.882;8.664;2023-02-15T07:17:39;25.90;;;12.63;;
13085;SDS011;6609;49.882;8.664;2023-02-15T07:20:07;22.63;;;12.15;;
13085;SDS011;6609;49.882;8.664;2023-02-15T07:22:34;25.38;;;13.23;;
13085;SDS011;6609;49.882;8.664;2023-02-15T07:25:03;27.80;;;14.60;;
13085;SDS011;6609;49.882;8.664;2023-02-15T07:27:31;25.23;;;11.90;;
13085;SDS011;6609;49.882;8.664;2023-02-15T07:29:58;23.38;;;12.18;;
13085;SDS011;6609;49.882;8.664;2023-02-15T07:32:27;26.38;;;12.65;;
13085;SDS011;6609;49.882;8.664;2023-02-15T07:34:54;27.83;;;12.68;;
13085;SDS011;6609;49.882;8.664;2023-02-15T07:37:21;24.17;;;12.27;;
13085;SDS011;6609;49.882;8.664;2023-02-15T07:39:48;25.30;;;12.35;;
13085;SDS011;6609;49.882;8.664;2023-02-15T07:42:17;27.55;;;13.02;;
13085;SDS011;6609;49.882;8.664;2023-02-15T07:44:44;25.17;;;13.13;;
13085;SDS011;6609;49.882;8.664;2023-02-15T07:47:11;27.80;;;13.63;;
13085;SDS011;6609;49.882;8.664;2023-02-15T07:49:38;27.17;;;13.32;;
13085;SDS011;6609;49.882;8.664;2023-02-15T07:52:05;28.48;;;13.35;;
13085;SDS011;6609;49.882;8.664;2023-02-15T07:54:32;28.75;;;12.65;;
13085;SDS011;6609;49.882;8.664;2023-02-15T07:57:00;31.73;;;14.23;;
13085;SDS011;6609;49.882;8.664;2023-02-15T07:59:28;29.70;;;13.45;;
13085;SDS011;6609;49.882;8.664;2023-02-15T08:01:55;27.58;;;13.77;;
13085;SDS011;6609;49.882;8.664;2023-02-15T08:04:22;29.42;;;13.80;;
13085;SDS011;6609;49.882;8.664;2023-02-15T08:06:51;28.70;;;14.15;;
13085;SDS011;6609;49.882;8.664;2023-02-15T08:09:19;32.22;;;14.23;;
13085;SDS011;6609;49.882;8.664;2023-02-15T08:11:46;29.35;;;13.82;;
13085;SDS011;6609;49.882;8.664;2023-02-15T08:14:14;30.30;;;13.93;;
13085;SDS011;6609;49.882;8.664;2023-02-15T08:16:44;31.80;;;13.77;;
13085;SDS011;6609;49.882;8.664;2023-02-15T08:19:12;30.73;;;14.18;;
13085;SDS011;6609;49.882;8.664;2023-02-15T08:21:40;25.00;;;13.10;;
13085;SDS011;6609;49.882;8.664;2023-02-15T08:24:08;31.40;;;14.35;;
13085;SDS011;6609;49.882;8.664;2023-02-15T08:26:37;36.72;;;15.65;;
13085;SDS011;6609;49.882;8.664;2023-02-15T08:29:04;35.33;;;16.95;;
13085;SDS011;6609;49.882;8.664;2023-02-15T08:31:32;33.63;;;15.60;;
13085;SDS011;6609;49.882;8.664;2023-02-15T08:34:01;29.85;;;14.00;;
13085;SDS011;6609;49.882;8.664;2023-02-15T08:36:28;34.30;;;16.17;;
13085;SDS011;6609;49.882;8.664;2023-02-15T08:38:57;39.93;;;16.27;;
13085;SDS011;6609;49.882;8.664;2023-02-15T08:41:24;36.97;;;17.80;;
13085;SDS011;6609;49.882;8.664;2023-02-15T08:43:53;34.03;;;16.30;;
13085;SDS011;6609;49.882;8.664;2023-02-15T08:46:21;33.95;;;16.60;;
13085;SDS011;6609;49.882;8.664;2023-02-15T08:48:49;44.50;;;16.98;;
13085;SDS011;6609;49.882;8.664;2023-02-15T08:51:18;36.22;;;16.85;;
13085;SDS011;6609;49.882;8.664;2023-02-15T08:53:47;40.63;;;16.45;;
13085;SDS011;6609;49.882;8.664;2023-02-15T08:56:15;37.20;;;16.00;;
13085;SDS011;6609;49.882;8.664;2023-02-15T08:58:42;30.13;;;14.70;;
13085;SDS011;6609;49.882;8.664;2023-02-15T09:01:09;33.55;;;16.08;;
13085;SDS011;6609;49.882;8.664;2023-02-15T09:03:37;34.03;;;15.32;;
13085;SDS011;6609;49.882;8.664;2023-02-15T09:06:04;35.05;;;14.50;;
13085;SDS011;6609;49.882;8.664;2023-02-15T09:08:32;30.83;;;15.27;;
13085;SDS011;6609;49.882;8.664;2023-02-15T09:11:06;29.70;;;13.47;;
13085;SDS011;6609;49.882;8.664;2023-02-15T09:13:34;30.63;;;14.95;;
13085;SDS011;6609;49.882;8.664;2023-02-15T09:16:01;29.88;;;14.98;;
13085;SDS011;6609;49.882;8.664;2023-02-15T09:18:29;30.35;;;14.25;;
13085;SDS011;6609;49.882;8.664;2023-02-15T09:21:03;28.25;;;14.63;;
13085;SDS011;6609;49.882;8.664;2023-02-15T09:23:30;29.13;;;14.13;;
13085;SDS011;6609;49.882;8.664;2023-02-15T09:26:02;30.23;;;14.83;;
13085;SDS011;6609;49.882;8.664;2023-02-15T09:28:29;30.33;;;14.53;;
13085;SDS011;6609;49.882;8.664;2023-02-15T09:31:03;30.73;;;15.25;;
13085;SDS011;6609;49.882;8.664;2023-02-15T09:33:32;33.72;;;14.40;;
13085;SDS011;6609;49.882;8.664;2023-02-15T09:35:59;35.08;;;15.48;;
13085;SDS011;6609;49.882;8.664;2023-02-15T09:38:26;30.02;;;15.20;;
13085;SDS011;6609;49.882;8.664;2023-02-15T09:40:55;33.55;;;16.35;;
13085;SDS011;6609;49.882;8.664;2023-02-15T09:43:33;36.13;;;15.50;;
13085;SDS011;6609;49.882;8.664;2023-02-15T09:46:10;30.75;;;13.90;;
13085;SDS011;6609;49.882;8.664;2023-02-15T09:48:54;30.93;;;15.30;;
13085;SDS011;6609;49.882;8.664;2023-02-15T09:51:29;33.87;;;15.27;;
13085;SDS011;6609;49.882;8.664;2023-02-15T09:56:57;31.00;;;15.68;;
13085;SDS011;6609;49.882;8.664;2023-02-15T09:59:33;35.75;;;15.13;;
13085;SDS011;6609;49.882;8.664;2023-02-15T10:02:09;32.80;;;16.33;;
13085;SDS011;6609;49.882;8.664;2023-02-15T10:04:53;27.80;;;13.95;;
13085;SDS011;6609;49.882;8.664;2023-02-15T10:07:34;32.17;;;14.48;;
13085;SDS011;6609;49.882;8.664;2023-02-15T10:10:14;31.90;;;15.27;;
13085;SDS011;6609;49.882;8.664;2023-02-15T10:12:57;34.30;;;16.33;;
13085;SDS011;6609;49.882;8.664;2023-02-15T10:15:36;37.10;;;17.15;;
13085;SDS011;6609;49.882;8.664;2023-02-15T10:18:19;34.27;;;16.17;;
13085;SDS011;6609;49.882;8.664;2023-02-15T10:21:02;40.00;;;18.75;;
13085;SDS011;6609;49.882;8.664;2023-02-15T10:23:40;37.20;;;18.03;;
13085;SDS011;6609;49.882;8.664;2023-02-15T10:26:16;34.03;;;16.83;;
13085;SDS011;6609;49.882;8.664;2023-02-15T10:28:47;36.17;;;17.60;;
13085;SDS011;6609;49.882;8.664;2023-02-15T10:31:20;38.05;;;18.15;;
13085;SDS011;6609;49.882;8.664;2023-02-15T10:33:51;46.83;;;19.88;;
13085;SDS011;6609;49.882;8.664;2023-02-15T10:36:32;37.23;;;17.83;;
13085;SDS011;6609;49.882;8.664;2023-02-15T10:39:12;37.80;;;18.05;;
13085;SDS011;6609;49.882;8.664;2023-02-15T10:41:46;41.00;;;17.43;;
13085;SDS011;6609;49.882;8.664;2023-02-15T10:44:27;34.73;;;16.60;;
13085;SDS011;6609;49.882;8.664;2023-02-15T10:47:13;36.80;;;18.00;;
13085;SDS011;6609;49.882;8.664;2023-02-15T10:49:48;36.72;;;18.33;;
13085;SDS011;6609;49.882;8.664;2023-02-15T10:52:37;36.25;;;16.88;;
13085;SDS011;6609;49.882;8.664;2023-02-15T10:55:17;38.25;;;17.52;;
13085;SDS011;6609;49.882;8.664;2023-02-15T10:57:51;39.10;;;18.03;;
13085;SDS011;6609;49.882;8.664;2023-02-15T11:00:27;35.90;;;17.53;;
13085;SDS011;6609;49.882;8.664;2023-02-15T11:03:11;38.63;;;18.88;;
13085;SDS011;6609;49.882;8.664;2023-02-15T11:05:50;40.92;;;18.58;;
13085;SDS011;6609;49.882;8.664;2023-02-15T11:08:24;35.10;;;17.40;;
13085;SDS011;6609;49.882;8.664;2023-02-15T11:10:56;36.47;;;18.30;;
13085;SDS011;6609;49.882;8.664;2023-02-15T11:13:27;38.67;;;17.37;;
13085;SDS011;6609;49.882;8.664;2023-02-15T11:16:01;33.33;;;18.50;;
13085;SDS011;6609;49.882;8.664;2023-02-15T11:18:32;35.13;;;17.65;;
13085;SDS011;6609;49.882;8.664;2023-02-15T11:21:02;33.50;;;17.03;;
13085;SDS011;6609;49.882;8.664;2023-02-15T11:23:30;33.27;;;17.83;;
13085;SDS011;6609;49.882;8.664;2023-02-15T11:26:02;38.72;;;18.02;;
13085;SDS011;6609;49.882;8.664;2023-02-15T11:28:31;37.10;;;18.67;;
13085;SDS011;6609;49.882;8.664;2023-02-15T11:31:10;36.63;;;18.40;;
13085;SDS011;6609;49.882;8.664;2023-02-15T11:33:42;39.97;;;19.45;;
13085;SDS011;6609;49.882;8.664;2023-02-15T11:36:13;37.50;;;19.27;;
13085;SDS011;6609;49.882;8.664;2023-02-15T11:38:44;38.38;;;20.45;;
13085;SDS011;6609;49.882;8.664;2023-02-15T11:41:14;39.27;;;19.87;;
13085;SDS011;6609;49.882;8.664;2023-02-15T11:43:46;41.10;;;20.63;;
13085;SDS011;6609;49.882;8.664;2023-02-15T11:46:18;44.07;;;21.20;;
13085;SDS011;6609;49.882;8.664;2023-02-15T11:48:46;45.03;;;19.87;;
13085;SDS011;6609;49.882;8.664;2023-02-15T11:51:14;43.30;;;19.50;;
13085;SDS011;6609;49.882;8.664;2023-02-15T11:53:42;45.53;;;21.40;;
13085;SDS011;6609;49.882;8.664;2023-02-15T11:56:12;38.80;;;19.17;;
13085;SDS011;6609;49.882;8.664;2023-02-15T11:58:41;46.07;;;20.80;;
13085;SDS011;6609;49.882;8.664;2023-02-15T12:01:13;45.45;;;23.17;;
13085;SDS011;6609;49.882;8.664;2023-02-15T12:03:44;40.40;;;19.67;;
13085;SDS011;6609;49.882;8.664;2023-02-15T12:06:16;42.03;;;21.17;;
13085;SDS011;6609;49.882;8.664;2023-02-15T12:08:46;42.93;;;19.30;;
13085;SDS011;6609;49.882;8.664;2023-02-15T12:11:17;37.00;;;19.30;;
13085;SDS011;6609;49.882;8.664;2023-02-15T12:13:53;39.13;;;18.63;;
13085;SDS011;6609;49.882;8.664;2023-02-15T12:16:22;40.07;;;18.77;;
13085;SDS011;6609;49.882;8.664;2023-02-15T12:18:50;38.20;;;19.73;;
13085;SDS011;6609;49.882;8.664;2023-02-15T12:21:25;39.50;;;18.70;;
13085;SDS011;6609;49.882;8.664;2023-02-15T12:23:55;40.87;;;18.77;;
13085;SDS011;6609;49.882;8.664;2023-02-15T12:26:26;36.33;;;17.67;;
13085;SDS011;6609;49.882;8.664;2023-02-15T12:28:54;38.80;;;17.50;;
13085;SDS011;6609;49.882;8.664;2023-02-15T12:31:24;38.17;;;19.03;;
13085;SDS011;6609;49.882;8.664;2023-02-15T12:33:55;37.67;;;18.50;;
13085;SDS011;6609;49.882;8.664;2023-02-15T12:36:24;33.07;;;16.40;;
13085;SDS011;6609;49.882;8.664;2023-02-15T12:39:03;34.73;;;17.60;;
13085;SDS011;6609;49.882;8.664;2023-02-15T12:41:57;35.50;;;17.17;;
13085;SDS011;6609;49.882;8.664;2023-02-15T12:44:27;36.97;;;17.77;;
13085;SDS011;6609;49.882;8.664;2023-02-15T12:46:56;36.53;;;17.60;;
13085;SDS011;6609;49.882;8.664;2023-02-15T12:49:25;34.27;;;17.13;;
13085;SDS011;6609;49.882;8.664;2023-02-15T12:51:52;34.73;;;18.33;;
13085;SDS011;6609;49.882;8.664;2023-02-15T12:54:31;34.93;;;17.43;;
13085;SDS011;6609;49.882;8.664;2023-02-15T12:59:56;28.03;;;15.10;;
13085;SDS011;6609;49.882;8.664;2023-02-15T13:02:25;32.90;;;17.20;;
13085;SDS011;6609;49.882;8.664;2023-02-15T13:04:54;37.30;;;18.93;;
13085;SDS011;6609;49.882;8.664;2023-02-15T13:07:23;42.77;;;18.33;;
13085;SDS011;6609;49.882;8.664;2023-02-15T13:09:55;34.50;;;17.53;;
13085;SDS011;6609;49.882;8.664;2023-02-15T13:12:23;34.83;;;18.13;;
13085;SDS011;6609;49.882;8.664;2023-02-15T13:14:51;33.73;;;17.70;;
13085;SDS011;6609;49.882;8.664;2023-02-15T13:17:20;37.70;;;18.77;;
13085;SDS011;6609;49.882;8.664;2023-02-15T13:19:56;37.43;;;19.03;;
13085;SDS011;6609;49.882;8.664;2023-02-15T13:22:27;35.67;;;19.30;;
13085;SDS011;6609;49.882;8.664;2023-02-15T13:25:01;33.10;;;17.17;;
13085;SDS011;6609;49.882;8.664;2023-02-15T13:27:32;32.33;;;17.20;;
13085;SDS011;6609;49.882;8.664;2023-02-15T13:30:03;31.47;;;15.70;;
13085;SDS011;6609;49.882;8.664;2023-02-15T13:32:39;32.20;;;17.67;;
13085;SDS011;6609;49.882;8.664;2023-02-15T13:35:13;33.43;;;17.30;;
13085;SDS011;6609;49.882;8.664;2023-02-15T13:37:48;36.27;;;18.80;;
13085;SDS011;6609;49.882;8.664;2023-02-15T13:40:22;39.53;;;18.60;;
13085;SDS011;6609;49.882;8.664;2023-02-15T13:42:52;37.70;;;19.37;;
13085;SDS011;6609;49.882;8.664;2023-02-15T13:45:30;37.10;;;17.13;;
13085;SDS011;6609;49.882;8.664;2023-02-15T13:48:09;34.33;;;18.27;;
13085;SDS011;6609;49.882;8.664;2023-02-15T13:53:38;35.13;;;17.73;;
13085;SDS011;6609;49.882;8.664;2023-02-15T13:56:28;29.73;;;16.73;;
13085;SDS011;6609;49.882;8.664;2023-02-15T13:59:16;33.67;;;17.93;;
13085;SDS011;6609;49.882;8.664;2023-02-15T14:02:23;32.57;;;17.80;;
13085;SDS011;6609;49.882;8.664;2023-02-15T14:05:12;33.63;;;18.57;;
13085;SDS011;6609;49.882;8.664;2023-02-15T14:07:53;31.83;;;17.40;;
13085;SDS011;6609;49.882;8.664;2023-02-15T14:10:34;30.17;;;17.90;;
13085;SDS011;6609;49.882;8.664;2023-02-15T14:13:12;34.33;;;18.93;;
13085;SDS011;6609;49.882;8.664;2023-02-15T14:16:00;33.37;;;17.53;;
13085;SDS011;6609;49.882;8.664;2023-02-15T14:18:35;33.70;;;17.10;;
13085;SDS011;6609;49.882;8.664;2023-02-15T14:21:09;31.93;;;18.10;;
13085;SDS011;6609;49.882;8.664;2023-02-15T14:23:43;37.17;;;18.60;;
13085;SDS011;6609;49.882;8.664;2023-02-15T14:26:25;37.67;;;18.80;;
13085;SDS011;6609;49.882;8.664;2023-02-15T14:29:05;34.37;;;18.30;;
13085;SDS011;6609;49.882;8.664;2023-02-15T14:31:35;33.10;;;18.23;;
13085;SDS011;6609;49.882;8.664;2023-02-15T14:34:08;37.17;;;19.90;;
13085;SDS011;6609;49.882;8.664;2023-02-15T14:36:45;32.10;;;18.07;;
13085;SDS011;6609;49.882;8.664;2023-02-15T14:39:16;36.60;;;19.60;;
13085;SDS011;6609;49.882;8.664;2023-02-15T14:42:07;33.60;;;17.43;;
13085;SDS011;6609;49.882;8.664;2023-02-15T14:44:42;36.47;;;19.43;;
13085;SDS011;6609;49.882;8.664;2023-02-15T14:47:16;39.50;;;20.37;;
13085;SDS011;6609;49.882;8.664;2023-02-15T14:49:47;39.47;;;20.40;;
13085;SDS011;6609;49.882;8.664;2023-02-15T14:52:15;39.20;;;20.70;;
13085;SDS011;6609;49.882;8.664;2023-02-15T14:57:28;41.13;;;22.60;;
13085;SDS011;6609;49.882;8.664;2023-02-15T14:59:58;41.30;;;22.73;;
13085;SDS011;6609;49.882;8.664;2023-02-15T15:02:43;39.33;;;20.70;;
13085;SDS011;6609;49.882;8.664;2023-02-15T15:05:11;46.73;;;24.00;;
13085;SDS011;6609;49.882;8.664;2023-02-15T15:07:42;40.93;;;23.33;;
13085;SDS011;6609;49.882;8.664;2023-02-15T15:16:29;44.87;;;23.13;;
13085;SDS011;6609;49.882;8.664;2023-02-15T15:19:12;43.23;;;23.60;;
13085;SDS011;6609;49.882;8.664;2023-02-15T15:22:32;48.10;;;24.20;;
13085;SDS011;6609;49.882;8.664;2023-02-15T15:24:59;50.77;;;24.47;;
13085;SDS011;6609;49.882;8.664;2023-02-15T15:27:41;46.70;;;25.53;;